Angler Guide Weather for Quesnel -
Quesnel, British Columbia Current Weather Conditions
Enter your "Place, State", US Zip Code or ICAO:  
Forecast Information Radar Information
Quesnel, British Columbia, Canada  Lat: 53.02N, Lon: 122.52W
ICAO Used: CYXS
Current Conditions
Updated:
Sun & Moon Information:
Temp: N/A
Humidity: N/A
Wind Speed: N/A
Barometer: N/A
Dewpoint: N/A
Heat Index: N/A
Wind Chill: N/A
Civil Twilight: 7:34 AM PST
Moonrise: 5:22 AM PST Moon Phase:
Waning Crescent Moon
Waning Crescent Moon
Moonset: 2:57 PM PST
Sunrise: 8:16 AM PST
Sunset: 3:52 PM PST
Civil Twilight: 4:34 PM PST
Forecast for Quesnel, BC:
(Forecast based on TAF for )
0140 PM PST MON NOV 06 2006
  
AFTERNOONEVENINGOVERNIGHT
MISTMISTMIST
MistMistMist
TAF based forecast:
Dated: 0140 PM PST MON NOV 06 2006
Afternoon...Mostly cloudy with mist with winds from the north at 12 mph. Then becoming mostly cloudy with mist with winds from the north at 6 mph. Possible periods of mostly cloudy with mist.
Evening...Mostly cloudy with mist with winds from the north at 12 mph. Then becoming mostly cloudy with mist with winds from the north at 6 mph.
Overnight...Mostly cloudy with mist with winds from the north at 6 mph.
Original Encoded TAF:
Dated: 0140 PM PST MON NOV 06 2006
2006/11/06 21:40
CYXS 062140Z 062106 01010KT 1SM BR BKN003 BKN015 TEMPO 2124 6SM BR FEW005 SCT015 BKN070 BECMG 2224 01005KT=




Powered by Angler Guide.com
Copyright 2007, all rights reserved.